OIKKOIFM

Guest
Details From OIKK - Kerman
To OIFM - Esfahan Shahid Beheshti Intl
Flight Number -
Tags Generated
Created
Modified
Stats Distance 302 nm / 559 km
Max Altitude 0 ft / 0 m
Waypoints 3
Social Downloads 0
Likes 0
Share VATSIM

Download

Looking for another format? Having issues loading an existing format? Contact us
Advertisement - Login to hide

Notes

Generated

Route

OIKK IFN OIFM

ID Type Via Altitude Latitude Longitude Leg Dist Tot Dist Heading (true) Name
O OIKK APT - 0 ft / 0 m 30.25735˚ 56.95072˚ - 0 nm - -
IFN NDB - 0 ft / 0 m 32.74897˚ 51.88081˚ 299 nm 299 nm 301° / 299° ESFAHAN NDB
O OIFM APT - 0 ft / 0 m 32.74469˚ 51.83886˚ 2 nm 301 nm 263° / 263° -

Altitude Profile

Advertisement - Login to hide

Weather


0- 5 10 15 20 25 30 35+ Temperature / ° C

Clouds and Precipitation
Forecast for 2018-05-20 18:00 UTC. Updated 3 hours ago

Ground ~20,000 ft ~40,000 ft Winds

OIKK

Details ICAO OIKK (KER)
Name KERMAN
Region Iran
Timezone Asia/Tehran (UTC+4.5)
Stats Elevation 5,741 ft / 1,750 m (AMSL)
Location 30.268055° 56.955332°
Runways 2
Magnetic Variation 2.937° E

METAR

OIKK 201850Z 25006KT CAVOK 17/M16 Q1022 A3018

Decode

TAF

TAF OIKK 201730Z 2018/2124 04004MPS 8000 FEW035 SCT100 TEMPO 2109/2118 32008G13MPS FEW035TCU SCT040 SCT090

Decode

Departure Runways

ID Width Length Bearing (true) Bearing (mag) Surface Threshold Offset Overrun Length
05 148 ft / 45 m 6,658 ft / 2,029 m 53.18° 50.24° Asphalt 0 ft / 0 m 0 ft / 0 m
16 148 ft / 45 m 12,653 ft / 3,857 m 158.43° 155.49° Asphalt 0 ft / 0 m 344 ft / 105 m
23 148 ft / 45 m 6,658 ft / 2,029 m 233.19° 230.25° Asphalt 0 ft / 0 m 0 ft / 0 m
34 148 ft / 45 m 12,653 ft / 3,857 m 338.44° 335.50° Asphalt 0 ft / 0 m 488 ft / 149 m

OIFM

Details ICAO OIFM
Name ESFAHAN SHAHID BEHESHTI INTL
Region Iran
Timezone Asia/Tehran (UTC+4.5)
Stats Elevation 5,059 ft / 1,542 m (AMSL)
Location 32.750857° 51.861286°
Runways 2
Magnetic Variation 3.962° E

METAR

OIFM 201930Z 15004KT 9999 FEW040 SCT100 19/M05 Q1020 A3013

Decode

TAF

TAF OIFM 201730Z 2018/2124 12004MPS 8000 FEW040 TEMPO 2112/2118 25009MPS FEW030CB FEW035 BKN090 PROB40 TEMPO 2112/2115 5000 TSRA SCT030CB SCT035 BKN090

Decode

Destination Runways

ID Width Length Bearing (true) Bearing (mag) Surface Threshold Offset Overrun Length
08L 148 ft / 45 m 14,402 ft / 4,390 m 77.88° 73.92° Asphalt 0 ft / 0 m 1,188 ft / 362 m
08R 148 ft / 45 m 14,401 ft / 4,390 m 77.88° 73.92° Asphalt 0 ft / 0 m 1,184 ft / 361 m
26L 148 ft / 45 m 14,401 ft / 4,390 m 257.90° 253.94° Asphalt 0 ft / 0 m 1,181 ft / 360 m
26R 148 ft / 45 m 14,402 ft / 4,390 m 257.90° 253.94° Asphalt 0 ft / 0 m 1,184 ft / 361 m

Approach Navaids

Runway Type Ident Frequency Range Bearing (true) Bearing (mag) Slope Elevation
26R Localiser IIFN 109.90 MHz 18 nm / 33 km 257.89° 253.93° - 5,044 ft / 1,537 m (AMSL)
26R Glidescope IIFN 109.90 MHz 10 nm / 19 km 257.89° 253.93° 2.63° 5,057 ft / 1,541 m (AMSL)
26R DME IIFN 109.90 MHz 18 nm / 33 km - - - 5,041 ft / 1,536 m (AMSL)